createdAt,value
2018-08-06T00:00:50.034Z,1.55
2018-08-06T00:03:17.733Z,1.72
2018-08-06T00:05:45.427Z,1.40
2018-08-06T00:08:13.222Z,1.20
2018-08-06T00:10:40.938Z,0.98
2018-08-06T00:13:08.662Z,2.05
2018-08-06T00:15:36.322Z,1.20
2018-08-06T00:18:04.091Z,1.20
2018-08-06T00:20:31.808Z,1.20
2018-08-06T00:22:59.461Z,1.62
2018-08-06T00:25:28.066Z,1.27
2018-08-06T00:27:55.762Z,1.10
2018-08-06T00:30:23.470Z,1.17
2018-08-06T00:32:51.158Z,1.40
2018-08-06T00:35:19.112Z,1.57
2018-08-06T00:37:46.797Z,1.30
2018-08-06T00:40:16.378Z,1.27
2018-08-06T00:42:44.674Z,2.20
2018-08-06T00:45:14.779Z,1.20
2018-08-06T00:47:42.956Z,1.40
2018-08-06T00:50:11.185Z,1.30
2018-08-06T00:52:38.849Z,1.30
2018-08-06T00:55:08.931Z,1.60
2018-08-06T00:57:36.655Z,1.80
2018-08-06T01:00:07.578Z,2.15
2018-08-06T01:02:35.256Z,1.72
2018-08-06T01:05:03.765Z,1.50
2018-08-06T01:07:31.468Z,1.35
2018-08-06T01:09:59.121Z,1.80
2018-08-06T01:12:26.803Z,1.50
2018-08-06T01:14:54.459Z,1.40
2018-08-06T01:17:22.124Z,1.32
2018-08-06T01:19:49.854Z,1.72
2018-08-06T01:22:17.505Z,1.90
2018-08-06T01:24:45.235Z,1.72
2018-08-06T01:27:12.949Z,1.40
2018-08-06T01:29:40.618Z,1.55
2018-08-06T01:32:08.284Z,2.02
2018-08-06T01:34:35.966Z,1.40
2018-08-06T01:37:04.306Z,2.33
2018-08-06T01:39:31.986Z,1.42
2018-08-06T01:41:59.662Z,1.47
2018-08-06T01:44:27.332Z,2.75
2018-08-06T01:46:55.051Z,2.00
2018-08-06T01:49:22.760Z,1.92
2018-08-06T01:51:50.499Z,2.20
2018-08-06T01:54:18.149Z,2.65
2018-08-06T01:56:45.870Z,1.90
2018-08-06T01:59:13.518Z,1.37
2018-08-06T02:01:41.209Z,1.50
2018-08-06T02:04:08.922Z,2.10
2018-08-06T02:06:36.625Z,2.00
2018-08-06T02:09:06.692Z,1.10
2018-08-06T02:11:34.406Z,1.80
2018-08-06T02:14:02.119Z,1.22
2018-08-06T02:16:29.816Z,1.62
2018-08-06T02:18:57.526Z,1.77
2018-08-06T02:21:25.240Z,1.60
2018-08-06T02:23:52.897Z,1.22
2018-08-06T02:26:20.562Z,1.85
2018-08-06T02:28:48.929Z,1.75
2018-08-06T02:31:16.601Z,1.50
2018-08-06T02:33:44.271Z,2.75
2018-08-06T02:36:11.953Z,1.02
2018-08-06T02:38:39.693Z,1.50
2018-08-06T02:41:08.006Z,1.62
2018-08-06T02:43:35.690Z,1.40
2018-08-06T02:46:03.417Z,1.65
2018-08-06T02:48:31.148Z,1.17
2018-08-06T02:50:58.839Z,1.20
2018-08-06T02:53:26.501Z,1.47
2018-08-06T02:55:54.174Z,1.40
2018-08-06T02:58:21.875Z,1.42
2018-08-06T03:00:49.542Z,1.40
2018-08-06T03:03:17.660Z,2.05
2018-08-06T03:05:45.301Z,1.30
2018-08-06T03:08:13.065Z,1.55
2018-08-06T03:10:40.735Z,1.22
2018-08-06T03:13:08.449Z,1.45
2018-08-06T03:15:36.082Z,1.20
2018-08-06T03:18:03.783Z,1.17
2018-08-06T03:20:31.421Z,1.32
2018-08-06T03:22:59.091Z,1.55
2018-08-06T03:25:26.767Z,1.42
2018-08-06T03:27:54.427Z,1.75
2018-08-06T03:30:22.109Z,1.10
2018-08-06T03:32:49.812Z,1.32
2018-08-06T03:35:17.516Z,1.52
2018-08-06T03:37:45.234Z,1.60
2018-08-06T03:40:12.978Z,1.30
2018-08-06T03:42:40.766Z,2.15
2018-08-06T03:45:10.013Z,1.55
2018-08-06T03:47:38.074Z,1.47
2018-08-06T03:50:07.510Z,1.10
2018-08-06T03:52:35.203Z,1.12
2018-08-06T03:55:03.926Z,1.50
2018-08-06T03:57:31.597Z,1.67
2018-08-06T03:59:59.245Z,1.20
2018-08-06T04:02:26.934Z,1.00
2018-08-06T04:04:54.665Z,1.40
2018-08-06T04:07:22.342Z,0.90
2018-08-06T04:09:50.169Z,1.10
2018-08-06T04:12:17.814Z,0.93
2018-08-06T04:14:45.462Z,1.02
2018-08-06T04:17:13.178Z,1.30
2018-08-06T04:19:40.903Z,1.30
2018-08-06T04:22:08.522Z,0.90
2018-08-06T04:24:36.198Z,1.25
2018-08-06T04:27:03.912Z,1.07
2018-08-06T04:29:31.562Z,1.32
2018-08-06T04:31:59.266Z,1.60
2018-08-06T04:34:26.964Z,1.20
2018-08-06T04:36:54.687Z,1.22
2018-08-06T04:39:22.340Z,1.20
2018-08-06T04:41:50.006Z,1.10
2018-08-06T04:44:17.759Z,1.25
2018-08-06T04:46:45.731Z,1.20
2018-08-06T04:49:13.486Z,1.20
2018-08-06T04:51:41.159Z,0.90
2018-08-06T04:54:08.852Z,1.52
2018-08-06T04:56:36.613Z,1.10
2018-08-06T04:59:04.326Z,1.02
2018-08-06T05:01:32.013Z,1.40
2018-08-06T05:03:59.674Z,1.20
2018-08-06T05:06:27.391Z,1.10
2018-08-06T05:08:55.118Z,1.90
2018-08-06T05:11:22.794Z,1.27
2018-08-06T05:13:50.576Z,1.00
2018-08-06T05:16:18.303Z,1.10
2018-08-06T05:18:45.938Z,0.93
2018-08-06T05:21:13.582Z,1.00
2018-08-06T05:23:53.582Z,1.00
2018-08-06T05:26:21.331Z,1.00
2018-08-06T05:28:50.214Z,1.65
2018-08-06T05:31:17.953Z,1.30
2018-08-06T05:33:46.501Z,1.40
2018-08-06T05:36:14.206Z,0.93
2018-08-06T05:38:41.903Z,1.30
2018-08-06T05:41:09.881Z,1.20
2018-08-06T05:43:38.213Z,1.00
2018-08-06T05:46:06.430Z,1.90
2018-08-06T05:48:34.166Z,1.32
2018-08-06T05:51:01.921Z,1.20
2018-08-06T05:53:29.617Z,1.30
2018-08-06T05:55:57.338Z,1.12
2018-08-06T05:58:25.098Z,1.37
2018-08-06T06:00:52.998Z,1.55
2018-08-06T06:03:20.813Z,1.37
2018-08-06T06:05:48.509Z,1.30
2018-08-06T06:08:16.227Z,1.32
2018-08-06T06:10:44.061Z,1.30
2018-08-06T06:13:11.757Z,1.10
2018-08-06T06:15:39.636Z,1.98
2018-08-06T06:18:07.363Z,0.95
2018-08-06T06:20:35.182Z,1.10
2018-08-06T06:23:02.932Z,1.37
2018-08-06T06:25:30.704Z,1.20
2018-08-06T06:27:59.326Z,1.10
2018-08-06T06:30:27.095Z,1.90
2018-08-06T06:32:54.808Z,1.32
2018-08-06T06:35:22.526Z,1.00
2018-08-06T06:37:50.234Z,1.70
2018-08-06T06:40:17.957Z,1.32
2018-08-06T06:42:45.697Z,1.70
2018-08-06T06:45:13.423Z,1.92
2018-08-06T06:47:41.143Z,1.22
2018-08-06T06:50:09.054Z,1.30
2018-08-06T06:52:36.780Z,1.17
2018-08-06T06:55:07.033Z,1.25
2018-08-06T06:57:35.036Z,1.12
2018-08-06T07:00:03.831Z,1.10
2018-08-06T07:02:31.772Z,0.90
2018-08-06T07:04:59.777Z,1.20
2018-08-06T07:07:27.495Z,1.45
2018-08-06T07:09:55.249Z,0.90
2018-08-06T07:12:22.945Z,0.90
2018-08-06T07:14:50.681Z,1.12
2018-08-06T07:17:18.430Z,1.10
2018-08-06T07:19:46.890Z,0.80
2018-08-06T07:22:14.586Z,1.15
2018-08-06T07:24:42.321Z,1.10
2018-08-06T07:27:10.085Z,1.15
2018-08-06T07:29:37.797Z,1.00
2018-08-06T07:32:05.604Z,1.20
2018-08-06T07:34:33.418Z,1.62
2018-08-06T07:37:01.194Z,1.75
2018-08-06T07:39:28.955Z,0.78
2018-08-06T07:41:57.577Z,1.72
2018-08-06T07:44:25.630Z,0.98
2018-08-06T07:46:53.326Z,1.00
2018-08-06T07:49:21.038Z,1.02
2018-08-06T07:51:48.766Z,1.57
2018-08-06T07:54:16.497Z,0.93
2018-08-06T07:56:44.365Z,1.27
2018-08-06T07:59:12.082Z,1.52
2018-08-06T08:01:39.761Z,2.05
2018-08-06T08:04:07.465Z,1.32
2018-08-06T08:06:35.219Z,1.25
2018-08-06T08:09:04.884Z,1.22
2018-08-06T08:11:32.599Z,1.10
2018-08-06T08:14:01.321Z,0.98
2018-08-06T08:16:29.091Z,0.90
2018-08-06T08:18:56.829Z,0.80
2018-08-06T08:21:24.543Z,0.90
2018-08-06T08:23:52.299Z,1.52
2018-08-06T08:26:19.982Z,0.98
2018-08-06T08:28:47.725Z,1.10
2018-08-06T08:31:15.496Z,1.10
2018-08-06T08:33:43.284Z,1.15
2018-08-06T08:36:11.157Z,2.83
2018-08-06T08:38:38.958Z,1.20
2018-08-06T08:41:06.767Z,1.22
2018-08-06T08:43:34.610Z,1.07
2018-08-06T08:46:03.368Z,1.25
2018-08-06T08:48:31.201Z,1.05
2018-08-06T08:50:58.963Z,1.80
2018-08-06T08:53:26.643Z,1.30
2018-08-06T08:55:54.509Z,1.15
2018-08-06T08:58:22.256Z,0.90
2018-08-06T09:00:50.132Z,1.45
2018-08-06T09:03:17.896Z,0.90
2018-08-06T09:05:45.688Z,1.40
2018-08-06T09:08:14.170Z,1.05
2018-08-06T09:10:41.962Z,1.30
2018-08-06T09:13:09.684Z,1.07
2018-08-06T09:15:37.365Z,0.90
2018-08-06T09:18:05.070Z,0.88
2018-08-06T09:20:32.822Z,1.30
2018-08-06T09:23:00.565Z,1.82
2018-08-06T09:25:28.292Z,1.02
2018-08-06T09:27:56.008Z,1.20
2018-08-06T09:30:24.302Z,1.22
2018-08-06T09:32:53.367Z,1.10
2018-08-06T09:35:21.458Z,1.27
2018-08-06T09:37:49.681Z,1.15
2018-08-06T09:40:18.758Z,0.90
2018-08-06T09:42:47.225Z,1.10
2018-08-06T09:45:16.107Z,2.67
2018-08-06T09:47:45.023Z,1.27
2018-08-06T09:50:13.495Z,2.02
2018-08-06T09:52:42.186Z,1.30
2018-08-06T09:55:13.095Z,1.32
2018-08-06T09:57:41.670Z,1.40
2018-08-06T10:00:24.471Z,1.30
2018-08-06T10:02:53.075Z,1.70
2018-08-06T10:05:21.955Z,1.40
2018-08-06T10:07:50.181Z,1.40
2018-08-06T10:10:18.001Z,1.82
2018-08-06T10:12:46.030Z,1.20
2018-08-06T10:15:14.473Z,1.30
2018-08-06T10:19:11.852Z,2.08
2018-08-06T10:21:39.565Z,1.10
2018-08-06T10:24:07.333Z,1.35
2018-08-06T10:26:35.098Z,1.27
2018-08-06T10:29:02.925Z,1.37
2018-08-06T10:31:30.700Z,1.37
2018-08-06T10:33:58.507Z,1.17
2018-08-06T10:36:26.204Z,1.17
2018-08-06T10:38:53.908Z,1.10
2018-08-06T10:41:21.625Z,1.12
2018-08-06T10:43:49.506Z,1.20
2018-08-06T10:46:17.185Z,2.00
2018-08-06T10:48:45.641Z,1.35
2018-08-06T10:51:13.326Z,1.17
2018-08-06T10:53:41.010Z,1.37
2018-08-06T10:56:08.780Z,1.37
2018-08-06T10:58:36.526Z,1.57
2018-08-06T11:01:04.223Z,1.50
2018-08-06T11:03:31.965Z,2.70
2018-08-06T11:05:59.679Z,2.12
2018-08-06T11:08:27.390Z,3.40
2018-08-06T11:10:55.220Z,2.15
2018-08-06T11:13:23.070Z,2.55
2018-08-06T11:15:50.873Z,3.17
2018-08-06T11:18:19.680Z,1.62
2018-08-06T11:20:47.425Z,1.45
2018-08-06T11:23:15.165Z,1.52
2018-08-06T11:25:42.838Z,2.33
2018-08-06T11:28:10.542Z,1.70
2018-08-06T11:30:38.235Z,1.57
2018-08-06T11:33:05.930Z,1.40
2018-08-06T11:35:33.617Z,1.50
2018-08-06T11:38:01.284Z,1.67
2018-08-06T11:40:29.006Z,1.40
2018-08-06T11:42:56.706Z,1.50
2018-08-06T11:45:24.417Z,2.55
2018-08-06T11:47:52.125Z,2.62
2018-08-06T11:50:19.866Z,1.77
2018-08-06T11:52:47.608Z,1.60
2018-08-06T11:55:15.325Z,1.70
2018-08-06T11:57:43.095Z,1.50
2018-08-06T12:00:15.337Z,1.98
2018-08-06T12:02:43.190Z,2.25
2018-08-06T12:05:11.078Z,1.45
2018-08-06T12:07:38.807Z,1.67
2018-08-06T12:10:09.630Z,1.45
2018-08-06T12:12:37.333Z,1.62
2018-08-06T12:15:05.902Z,1.50
2018-08-06T12:17:33.594Z,1.35
2018-08-06T12:20:01.325Z,1.32
2018-08-06T12:22:29.031Z,1.60
2018-08-06T12:24:56.909Z,1.60
2018-08-06T12:27:24.662Z,2.85
2018-08-06T12:29:52.293Z,1.50
2018-08-06T12:32:19.973Z,1.60
2018-08-06T12:34:47.691Z,1.35
2018-08-06T12:37:15.367Z,1.40
2018-08-06T12:39:43.091Z,1.50
2018-08-06T12:42:10.803Z,1.50
2018-08-06T12:44:38.490Z,1.70
2018-08-06T12:47:06.210Z,1.37
2018-08-06T12:49:33.897Z,1.80
2018-08-06T12:52:01.597Z,1.75
2018-08-06T12:54:29.306Z,1.57
2018-08-06T12:56:56.999Z,1.47
2018-08-06T12:59:24.717Z,2.02
2018-08-06T13:01:52.396Z,1.70
2018-08-06T13:04:20.114Z,2.15
2018-08-06T13:06:47.810Z,1.50
2018-08-06T13:09:15.485Z,1.80
2018-08-06T13:11:43.171Z,1.60
2018-08-06T13:14:10.849Z,1.60
2018-08-06T13:16:38.561Z,2.35
2018-08-06T13:19:06.279Z,1.67
2018-08-06T13:21:33.993Z,1.72
2018-08-06T13:24:01.655Z,1.72
2018-08-06T13:26:29.422Z,1.70
2018-08-06T13:28:57.118Z,1.90
2018-08-06T13:31:24.914Z,1.87
2018-08-06T13:33:52.533Z,1.70
2018-08-06T13:36:20.436Z,1.55
2018-08-06T13:38:48.148Z,1.75
2018-08-06T13:41:15.817Z,1.90
2018-08-06T13:43:43.541Z,1.70
2018-08-06T13:46:11.235Z,2.05
2018-08-06T13:48:39.049Z,1.80
2018-08-06T13:51:06.775Z,1.80
2018-08-06T13:53:34.493Z,1.98
2018-08-06T13:56:02.190Z,2.00
2018-08-06T13:58:29.910Z,2.25
2018-08-06T14:00:57.611Z,1.72
2018-08-06T14:03:25.313Z,1.90
2018-08-06T14:05:53.011Z,1.80
2018-08-06T14:08:20.719Z,2.02
2018-08-06T14:10:48.435Z,1.80
2018-08-06T14:13:16.152Z,1.90
2018-08-06T14:15:43.853Z,2.00
2018-08-06T14:18:11.531Z,2.00
2018-08-06T14:20:39.207Z,2.12
2018-08-06T14:23:06.927Z,2.10
2018-08-06T14:25:34.623Z,1.90
2018-08-06T14:28:02.416Z,1.72
2018-08-06T14:30:30.095Z,1.80
2018-08-06T14:32:57.794Z,1.90
2018-08-06T14:35:25.505Z,2.05
2018-08-06T14:37:53.202Z,1.85
2018-08-06T14:40:20.887Z,1.90
2018-08-06T14:42:48.578Z,1.77
2018-08-06T14:45:16.387Z,2.00
2018-08-06T14:47:44.085Z,1.90
2018-08-06T14:50:13.365Z,1.80
2018-08-06T14:52:41.103Z,1.75
2018-08-06T14:55:08.801Z,2.10
2018-08-06T14:57:37.706Z,2.10
2018-08-06T15:00:18.456Z,1.92
2018-08-06T15:02:46.493Z,1.90
2018-08-06T15:05:15.110Z,1.80
2018-08-06T15:07:42.875Z,1.85
2018-08-06T15:10:11.811Z,1.87
2018-08-06T15:12:39.802Z,1.70
2018-08-06T15:15:10.545Z,1.90
2018-08-06T15:17:38.246Z,1.82
2018-08-06T15:20:09.145Z,2.05
2018-08-06T15:22:37.001Z,1.70
2018-08-06T15:25:07.356Z,1.90
2018-08-06T15:27:35.086Z,1.87
2018-08-06T15:30:03.509Z,1.90
2018-08-06T15:32:31.286Z,1.82
2018-08-06T15:34:59.110Z,2.30
2018-08-06T15:37:27.083Z,2.75
2018-08-06T15:39:54.761Z,2.30
2018-08-06T15:42:22.507Z,3.22
2018-08-06T15:44:50.174Z,3.62
2018-08-06T15:47:17.977Z,2.37
2018-08-06T15:49:45.679Z,2.75
2018-08-06T15:52:13.528Z,2.90
2018-08-06T15:54:41.212Z,3.05
2018-08-06T15:57:08.923Z,3.55
2018-08-06T15:59:36.657Z,2.33
2018-08-06T16:02:04.364Z,3.12
2018-08-06T16:04:32.081Z,2.30
2018-08-06T16:06:59.827Z,3.17
2018-08-06T16:09:27.498Z,2.47
2018-08-06T16:11:55.199Z,2.60
2018-08-06T16:14:22.891Z,4.42
2018-08-06T16:16:50.769Z,2.65
2018-08-06T16:19:18.486Z,3.77
2018-08-06T16:21:46.192Z,2.92
2018-08-06T16:24:13.927Z,2.85
2018-08-06T16:26:41.717Z,2.65
2018-08-06T16:29:09.450Z,2.62
2018-08-06T16:31:37.174Z,3.17
2018-08-06T16:34:05.046Z,3.22
2018-08-06T16:36:33.775Z,2.87
2018-08-06T16:39:01.874Z,4.30
2018-08-06T16:41:29.886Z,3.47
2018-08-06T16:43:57.610Z,3.47
2018-08-06T16:46:25.355Z,2.45
2018-08-06T16:48:53.091Z,3.80
2018-08-06T16:51:20.817Z,3.35
2018-08-06T16:53:48.522Z,3.52
2018-08-06T16:56:16.498Z,2.83
2018-08-06T16:58:44.209Z,2.85
2018-08-06T17:01:12.016Z,2.58
2018-08-06T17:03:39.748Z,3.17
2018-08-06T17:06:07.452Z,2.58
2018-08-06T17:08:35.216Z,4.53
2018-08-06T17:11:02.944Z,4.05
2018-08-06T17:13:30.628Z,2.60
2018-08-06T17:15:58.371Z,2.70
2018-08-06T17:18:26.305Z,3.05
2018-08-06T17:20:54.058Z,4.72
2018-08-06T17:23:21.831Z,2.92
2018-08-06T17:25:49.548Z,2.80
2018-08-06T17:28:17.293Z,3.77
2018-08-06T17:30:45.085Z,2.72
2018-08-06T17:33:12.797Z,3.47
2018-08-06T17:35:41.362Z,2.37
2018-08-06T17:38:09.054Z,3.58
2018-08-06T17:40:36.754Z,3.00
2018-08-06T17:43:04.490Z,2.90
2018-08-06T17:45:32.215Z,2.62
2018-08-06T17:47:59.974Z,2.80
2018-08-06T17:50:27.648Z,2.55
2018-08-06T17:52:55.347Z,2.52
2018-08-06T17:55:23.368Z,4.58
2018-08-06T17:57:51.130Z,4.03
2018-08-06T18:00:19.231Z,2.55
2018-08-06T18:02:47.200Z,3.75
2018-08-06T18:05:15.769Z,3.62
2018-08-06T18:07:43.951Z,3.40
2018-08-06T18:10:13.133Z,2.27
2018-08-06T18:12:41.314Z,2.40
2018-08-06T18:15:09.028Z,2.25
2018-08-06T18:17:37.277Z,2.20
2018-08-06T18:20:10.878Z,2.62
2018-08-06T18:22:38.597Z,2.95
2018-08-06T18:25:09.382Z,2.98
2018-08-06T18:27:37.729Z,3.20
2018-08-06T18:30:09.439Z,2.92
2018-08-06T18:32:37.295Z,2.55
2018-08-06T18:35:06.513Z,2.75
2018-08-06T18:37:34.267Z,2.90
2018-08-06T18:40:02.136Z,3.87
2018-08-06T18:42:29.860Z,2.62
2018-08-06T18:44:57.791Z,2.20
2018-08-06T18:47:25.489Z,2.27
2018-08-06T18:49:53.248Z,2.58
2018-08-06T18:52:21.666Z,4.40
2018-08-06T18:54:49.349Z,2.20
2018-08-06T18:57:17.061Z,2.72
2018-08-06T18:59:44.764Z,2.60
2018-08-06T19:02:12.482Z,3.62
2018-08-06T19:04:40.249Z,2.17
2018-08-06T19:07:08.054Z,2.65
2018-08-06T19:09:35.748Z,2.47
2018-08-06T19:12:09.182Z,1.92
2018-08-06T19:14:36.929Z,3.05
2018-08-06T19:17:04.626Z,2.33
2018-08-06T19:19:32.710Z,2.27
2018-08-06T19:22:00.436Z,3.83
2018-08-06T19:24:33.906Z,4.42
2018-08-06T19:27:01.647Z,4.87
2018-08-06T19:29:29.358Z,4.92
2018-08-06T19:31:57.098Z,3.02
2018-08-06T19:34:24.826Z,5.50
2018-08-06T19:36:58.377Z,3.83
2018-08-06T19:39:26.150Z,4.25
2018-08-06T19:41:53.884Z,3.08
2018-08-06T19:44:21.603Z,3.87
2018-08-06T19:46:49.354Z,5.10
2018-08-06T19:49:22.894Z,84.58
2018-08-06T19:51:50.594Z,196.68
2018-08-06T19:54:18.267Z,254.50
2018-08-06T19:56:46.027Z,215.30
2018-08-06T19:59:13.740Z,324.50
2018-08-06T20:01:41.476Z,417.77
2018-08-06T20:04:09.286Z,343.12
2018-08-06T20:06:37.146Z,164.35
2018-08-06T20:09:09.067Z,105.65
2018-08-06T20:11:36.966Z,61.77
2018-08-06T20:14:04.716Z,61.18
2018-08-06T20:16:32.427Z,47.15
2018-08-06T20:19:00.110Z,32.03
2018-08-06T20:21:27.822Z,36.13
2018-08-06T20:23:55.649Z,28.38
2018-08-06T20:26:23.395Z,19.52
2018-08-06T20:28:51.121Z,19.55
2018-08-06T20:31:18.810Z,16.60
2018-08-06T20:33:46.522Z,15.18
2018-08-06T20:36:14.242Z,20.30
2018-08-06T20:38:41.925Z,21.05
2018-08-06T20:41:09.710Z,12.28
2018-08-06T20:43:38.340Z,15.55
2018-08-06T20:46:06.158Z,17.20
2018-08-06T20:48:33.996Z,7.55
2018-08-06T20:51:01.727Z,11.35
2018-08-06T20:53:29.494Z,4.45
2018-08-06T20:55:58.541Z,5.62
2018-08-06T20:58:26.265Z,8.50
2018-08-06T21:00:53.989Z,6.17
2018-08-06T21:03:21.722Z,9.28
2018-08-06T21:05:49.441Z,5.20
2018-08-06T21:08:17.141Z,6.10
2018-08-06T21:10:44.948Z,6.97
2018-08-06T21:13:12.711Z,10.18
2018-08-06T21:15:40.446Z,8.73
2018-08-06T21:18:08.185Z,11.68
2018-08-06T21:20:35.915Z,11.25
2018-08-06T21:23:04.421Z,9.28
2018-08-06T21:25:32.132Z,6.35
2018-08-06T21:27:59.823Z,6.00
2018-08-06T21:30:27.614Z,8.28
2018-08-06T21:32:56.450Z,5.87
2018-08-06T21:35:25.209Z,5.15
2018-08-06T21:37:53.600Z,3.37
2018-08-06T21:40:22.073Z,5.10
2018-08-06T21:42:50.194Z,5.53
2018-08-06T21:45:18.162Z,3.83
2018-08-06T21:47:45.908Z,4.92
2018-08-06T21:50:14.096Z,3.37
2018-08-06T21:52:41.837Z,5.22
2018-08-06T21:55:10.069Z,2.87
2018-08-06T21:57:37.906Z,4.17
2018-08-06T22:00:11.517Z,3.35
2018-08-06T22:02:39.400Z,3.80
2018-08-06T22:05:07.798Z,4.12
2018-08-06T22:07:35.515Z,3.00
2018-08-06T22:10:04.022Z,2.45
2018-08-06T22:12:31.731Z,2.70
2018-08-06T22:14:59.459Z,4.08
2018-08-06T22:17:27.267Z,4.70
2018-08-06T22:19:54.972Z,5.35
2018-08-06T22:22:22.680Z,4.60
2018-08-06T22:24:50.376Z,4.10
2018-08-06T22:27:18.112Z,3.55
2018-08-06T22:29:45.842Z,4.47
2018-08-06T22:32:13.535Z,3.80
2018-08-06T22:34:41.329Z,3.27
2018-08-06T22:37:09.101Z,3.67
2018-08-06T22:39:36.816Z,2.95
2018-08-06T22:42:04.548Z,4.15
2018-08-06T22:44:32.345Z,3.62
2018-08-06T22:47:00.069Z,3.60
2018-08-06T22:49:27.812Z,3.60
2018-08-06T22:51:55.530Z,3.12
2018-08-06T22:54:23.520Z,4.87
2018-08-06T22:56:51.208Z,3.85
2018-08-06T22:59:18.938Z,4.95
2018-08-06T23:01:46.697Z,3.80
2018-08-06T23:04:14.465Z,2.87
2018-08-06T23:06:42.151Z,2.70
2018-08-06T23:09:11.274Z,3.00
2018-08-06T23:11:39.740Z,4.37
2018-08-06T23:14:07.539Z,3.47
2018-08-06T23:16:35.257Z,4.42
2018-08-06T23:19:02.978Z,3.08
2018-08-06T23:21:30.782Z,3.52
2018-08-06T23:23:58.588Z,6.45
2018-08-06T23:26:26.325Z,2.83
2018-08-06T23:28:54.063Z,3.20
2018-08-06T23:31:21.957Z,2.20
2018-08-06T23:33:49.671Z,3.92
2018-08-06T23:36:17.377Z,3.50
2018-08-06T23:38:45.107Z,3.25
2018-08-06T23:41:12.821Z,2.58
2018-08-06T23:43:40.540Z,2.45
2018-08-06T23:46:08.267Z,4.25
2018-08-06T23:48:36.004Z,3.50
2018-08-06T23:51:03.678Z,3.83
2018-08-06T23:53:31.407Z,2.83
2018-08-06T23:55:59.107Z,4.12
2018-08-06T23:58:26.819Z,3.30
